createdAt,value
2023-03-16T00:00:38.556Z,24.30
2023-03-16T00:03:08.319Z,24.36
2023-03-16T00:05:38.358Z,24.33
2023-03-16T00:08:08.377Z,24.31
2023-03-16T00:10:38.160Z,24.26
2023-03-16T00:13:08.232Z,24.24
2023-03-16T00:15:37.914Z,24.29
2023-03-16T00:18:07.789Z,24.27
2023-03-16T00:20:37.689Z,24.29
2023-03-16T00:23:07.300Z,24.33
2023-03-16T00:25:37.325Z,24.26
2023-03-16T00:28:06.982Z,24.27
2023-03-16T00:30:36.689Z,24.19
2023-03-16T00:33:09.961Z,24.16
2023-03-16T00:35:40.888Z,24.09
2023-03-16T00:38:13.100Z,24.12
2023-03-16T00:40:42.945Z,24.19
2023-03-16T00:43:13.206Z,24.17
2023-03-16T00:45:46.144Z,24.14
2023-03-16T00:48:17.581Z,24.16
2023-03-16T00:50:48.354Z,24.13
2023-03-16T00:53:18.328Z,24.14
2023-03-16T00:55:47.981Z,24.10
2023-03-16T00:58:17.614Z,24.12
2023-03-16T01:00:48.903Z,24.10
2023-03-16T01:03:18.884Z,24.03
2023-03-16T01:05:50.226Z,24.03
2023-03-16T01:08:20.995Z,23.99
2023-03-16T01:10:51.034Z,24.00
2023-03-16T01:13:20.860Z,24.05
2023-03-16T01:15:53.183Z,23.99
2023-03-16T01:18:23.570Z,23.99
2023-03-16T01:20:53.447Z,23.98
2023-03-16T01:23:23.806Z,23.98
2023-03-16T01:25:56.293Z,24.03
2023-03-16T01:28:29.241Z,24.00
2023-03-16T01:31:05.090Z,23.99
2023-03-16T01:33:36.519Z,23.95
2023-03-16T01:36:12.272Z,23.90
2023-03-16T01:38:49.389Z,23.83
2023-03-16T01:41:19.715Z,23.79
2023-03-16T01:43:49.796Z,23.82
2023-03-16T01:46:21.478Z,23.75
2023-03-16T01:49:13.543Z,23.68
2023-03-16T01:51:53.313Z,23.62
2023-03-16T01:54:30.487Z,23.61
2023-03-16T01:57:26.768Z,23.54
2023-03-16T02:00:31.385Z,23.55
2023-03-16T02:03:19.969Z,23.59
2023-03-16T02:06:02.536Z,23.55
2023-03-16T02:08:33.790Z,23.55
2023-03-16T02:11:05.898Z,23.57
2023-03-16T02:14:10.443Z,23.55
2023-03-16T02:16:42.149Z,23.55
2023-03-16T02:19:21.473Z,23.58
2023-03-16T02:22:00.555Z,23.55
2023-03-16T02:24:30.969Z,23.52
2023-03-16T02:27:07.924Z,23.58
2023-03-16T02:29:57.398Z,23.51
2023-03-16T02:32:32.109Z,23.52
2023-03-16T02:35:05.007Z,23.52
2023-03-16T02:37:35.774Z,23.50
2023-03-16T02:40:22.565Z,23.51
2023-03-16T02:43:09.523Z,23.48
2023-03-16T02:45:48.214Z,23.48
2023-03-16T02:48:59.598Z,23.50
2023-03-16T02:51:29.403Z,23.45
2023-03-16T02:54:00.396Z,23.44
2023-03-16T02:56:32.515Z,23.44
2023-03-16T02:59:02.597Z,23.42
2023-03-16T03:01:33.728Z,23.32
2023-03-16T03:04:04.705Z,23.37
2023-03-16T03:06:35.015Z,23.32
2023-03-16T03:09:06.530Z,23.27
2023-03-16T03:11:36.495Z,23.27
2023-03-16T03:14:07.580Z,23.21
2023-03-16T03:16:39.835Z,23.17
2023-03-16T03:19:10.015Z,23.08
2023-03-16T03:21:41.593Z,23.01
2023-03-16T03:24:12.113Z,22.99
2023-03-16T03:26:41.979Z,22.99
2023-03-16T03:29:18.501Z,23.06
2023-03-16T03:31:48.616Z,23.11
2023-03-16T03:34:18.613Z,23.17
2023-03-16T03:36:48.225Z,23.21
2023-03-16T03:39:18.050Z,23.20
2023-03-16T03:41:48.379Z,23.14
2023-03-16T03:44:18.773Z,23.17
2023-03-16T03:46:49.090Z,23.17
2023-03-16T03:49:19.387Z,23.14
2023-03-16T03:51:50.581Z,23.13
2023-03-16T03:54:26.752Z,23.04
2023-03-16T03:57:00.940Z,23.00
2023-03-16T03:59:30.984Z,23.03
2023-03-16T04:02:18.985Z,22.94
2023-03-16T04:04:57.152Z,22.90
2023-03-16T04:07:26.994Z,22.87
2023-03-16T04:10:01.406Z,22.82
2023-03-16T04:12:39.811Z,22.83
2023-03-16T04:15:14.768Z,22.83
2023-03-16T04:18:06.422Z,22.80
2023-03-16T04:20:37.351Z,22.79
2023-03-16T04:23:08.169Z,22.70
2023-03-16T04:25:40.332Z,22.72
2023-03-16T04:28:12.095Z,22.66
2023-03-16T04:30:44.171Z,22.60
2023-03-16T04:33:25.442Z,22.57
2023-03-16T04:35:55.696Z,22.59
2023-03-16T04:38:26.319Z,22.56
2023-03-16T04:40:58.720Z,22.60
2023-03-16T04:43:35.551Z,22.53
2023-03-16T04:46:19.931Z,22.52
2023-03-16T04:48:49.774Z,22.46
2023-03-16T04:51:19.880Z,22.53
2023-03-16T04:54:00.916Z,22.55
2023-03-16T04:56:36.452Z,22.56
2023-03-16T04:59:11.995Z,22.55
2023-03-16T05:01:59.909Z,22.55
2023-03-16T05:04:30.397Z,22.52
2023-03-16T05:07:00.436Z,22.57
2023-03-16T05:09:35.367Z,22.60
2023-03-16T05:12:05.391Z,22.60
2023-03-16T05:14:37.217Z,22.59
2023-03-16T05:17:23.745Z,22.63
2023-03-16T05:19:53.893Z,22.60
2023-03-16T05:22:24.754Z,22.63
2023-03-16T05:25:22.197Z,22.64
2023-03-16T05:27:55.593Z,22.67
2023-03-16T05:30:46.321Z,22.66
2023-03-16T05:33:22.744Z,22.67
2023-03-16T05:35:59.224Z,22.63
2023-03-16T05:38:29.401Z,22.63
2023-03-16T05:41:04.646Z,22.64
2023-03-16T05:43:58.525Z,22.60
2023-03-16T05:46:39.311Z,22.59
2023-03-16T05:49:09.941Z,22.57
2023-03-16T05:51:40.092Z,22.56
2023-03-16T05:54:10.189Z,22.56
2023-03-16T05:56:46.603Z,22.55
2023-03-16T05:59:19.296Z,22.49
2023-03-16T06:01:55.198Z,22.49
2023-03-16T06:04:25.248Z,22.43
2023-03-16T06:06:55.156Z,22.35
2023-03-16T06:09:28.728Z,22.32
2023-03-16T06:11:58.748Z,22.32
2023-03-16T06:14:28.348Z,22.29
2023-03-16T06:16:58.170Z,22.29
2023-03-16T06:19:27.910Z,22.28
2023-03-16T06:22:02.031Z,22.21
2023-03-16T06:24:32.907Z,22.25
2023-03-16T06:27:02.695Z,22.24
2023-03-16T06:29:38.873Z,22.22
2023-03-16T06:32:09.034Z,22.25
2023-03-16T06:34:38.818Z,22.28
2023-03-16T06:37:09.557Z,22.26
2023-03-16T06:39:40.324Z,22.18
2023-03-16T06:42:10.190Z,22.11
2023-03-16T06:44:41.078Z,22.11
2023-03-16T06:47:14.653Z,22.19
2023-03-16T06:49:44.521Z,22.22
2023-03-16T06:52:19.232Z,22.19
2023-03-16T06:54:49.064Z,22.19
2023-03-16T06:57:20.599Z,22.18
2023-03-16T06:59:52.313Z,22.09
2023-03-16T07:02:24.706Z,22.09
2023-03-16T07:04:55.302Z,22.08
2023-03-16T07:07:26.166Z,22.11
2023-03-16T07:09:56.260Z,22.11
2023-03-16T07:12:25.941Z,22.08
2023-03-16T07:14:55.864Z,22.08
2023-03-16T07:17:27.469Z,22.15
2023-03-16T07:19:57.436Z,22.11
2023-03-16T07:22:28.332Z,22.12
2023-03-16T07:24:58.576Z,22.16
2023-03-16T07:27:31.029Z,22.21
2023-03-16T07:30:05.782Z,22.26
2023-03-16T07:32:38.777Z,22.28
2023-03-16T07:35:09.802Z,22.28
2023-03-16T07:37:40.994Z,22.24
2023-03-16T07:40:12.942Z,22.19
2023-03-16T07:42:43.428Z,22.19
2023-03-16T07:45:19.052Z,22.16
2023-03-16T07:47:50.294Z,22.16
2023-03-16T07:50:39.832Z,22.16
2023-03-16T07:53:10.358Z,22.11
2023-03-16T07:55:43.361Z,22.12
2023-03-16T07:58:14.348Z,22.06
2023-03-16T08:00:45.346Z,22.11
2023-03-16T08:03:15.404Z,22.09
2023-03-16T08:05:46.464Z,22.14
2023-03-16T08:08:19.088Z,22.12
2023-03-16T08:10:56.760Z,22.15
2023-03-16T08:13:36.607Z,22.08
2023-03-16T08:16:11.458Z,22.08
2023-03-16T08:18:43.608Z,22.06
2023-03-16T08:21:13.818Z,22.05
2023-03-16T08:23:45.256Z,22.08
2023-03-16T08:26:15.226Z,22.01
2023-03-16T08:28:48.829Z,22.04
2023-03-16T08:31:20.768Z,22.00
2023-03-16T08:34:01.129Z,21.98
2023-03-16T08:36:32.723Z,21.97
2023-03-16T08:39:07.262Z,21.93
2023-03-16T08:41:44.408Z,21.97
2023-03-16T08:44:26.974Z,21.90
2023-03-16T08:46:57.044Z,21.90
2023-03-16T08:49:28.418Z,21.93
2023-03-16T08:52:07.523Z,21.88
2023-03-16T08:54:37.777Z,21.87
2023-03-16T08:57:07.826Z,21.85
2023-03-16T08:59:37.830Z,21.83
2023-03-16T09:02:08.251Z,21.84
2023-03-16T09:04:38.842Z,21.84
2023-03-16T09:07:10.113Z,21.84
2023-03-16T09:09:40.950Z,21.87
2023-03-16T09:12:11.626Z,21.83
2023-03-16T09:14:42.784Z,21.80
2023-03-16T09:17:12.852Z,21.80
2023-03-16T09:20:03.138Z,21.77
2023-03-16T09:22:32.420Z,21.75
2023-03-16T09:25:02.467Z,21.78
2023-03-16T09:27:32.317Z,21.75
2023-03-16T09:30:03.746Z,21.75
2023-03-16T09:32:34.648Z,21.83
2023-03-16T09:35:07.387Z,21.78
2023-03-16T09:37:44.890Z,21.80
2023-03-16T09:40:42.682Z,21.85
2023-03-16T09:43:59.737Z,21.90
2023-03-16T09:46:36.143Z,21.85
2023-03-16T09:49:06.628Z,21.85
2023-03-16T09:51:54.486Z,21.88
2023-03-16T09:54:51.302Z,21.95
2023-03-16T09:57:31.583Z,21.97
2023-03-16T10:00:21.412Z,21.94
2023-03-16T10:03:02.719Z,22.06
2023-03-16T10:05:34.874Z,22.04
2023-03-16T10:08:18.901Z,22.15
2023-03-16T10:11:17.259Z,22.24
2023-03-16T10:14:12.335Z,22.22
2023-03-16T10:16:51.635Z,22.26
2023-03-16T10:19:55.576Z,22.43
2023-03-16T10:22:34.707Z,22.42
2023-03-16T10:25:10.489Z,22.55
2023-03-16T10:27:44.553Z,22.62
2023-03-16T10:30:19.991Z,22.59
2023-03-16T10:32:50.848Z,22.64
2023-03-16T10:36:03.729Z,22.86
2023-03-16T10:38:39.913Z,23.00
2023-03-16T10:41:27.028Z,23.00
2023-03-16T10:44:08.678Z,23.21
2023-03-16T10:46:42.866Z,23.37
2023-03-16T10:49:28.312Z,23.52
2023-03-16T10:52:04.951Z,23.75
2023-03-16T10:54:41.828Z,23.89
2023-03-16T10:57:30.714Z,24.03
2023-03-16T11:00:16.177Z,24.10
2023-03-16T11:02:45.985Z,24.19
2023-03-16T11:05:17.408Z,24.33
2023-03-16T11:08:00.679Z,24.30
2023-03-16T11:10:46.043Z,24.24
2023-03-16T11:13:23.833Z,24.20
2023-03-16T11:16:12.899Z,24.06
2023-03-16T11:18:48.840Z,24.05
2023-03-16T11:21:34.140Z,24.77
2023-03-16T11:24:05.767Z,25.43
2023-03-16T11:26:44.052Z,25.33
2023-03-16T11:29:20.220Z,25.50
2023-03-16T11:31:57.535Z,25.63
2023-03-16T11:34:33.062Z,25.67
2023-03-16T11:37:31.293Z,25.87
2023-03-16T11:40:31.882Z,25.58
2023-03-16T11:43:12.204Z,25.88
2023-03-16T11:46:04.790Z,26.01
2023-03-16T11:48:37.869Z,26.25
2023-03-16T11:51:38.362Z,26.18
2023-03-16T11:54:39.233Z,26.34
2023-03-16T11:57:30.010Z,26.49
2023-03-16T12:00:04.565Z,26.55
2023-03-16T12:03:11.354Z,26.65
2023-03-16T12:05:46.970Z,26.62
2023-03-16T12:08:16.824Z,26.44
2023-03-16T12:11:07.340Z,26.52
2023-03-16T12:14:01.697Z,26.69
2023-03-16T12:16:49.065Z,27.02
2023-03-16T12:19:26.116Z,27.53
2023-03-16T12:22:09.871Z,27.27
2023-03-16T12:24:48.298Z,27.30
2023-03-16T12:27:26.593Z,27.69
2023-03-16T12:30:27.085Z,27.81
2023-03-16T12:33:16.142Z,28.26
2023-03-16T12:35:58.644Z,28.47
2023-03-16T12:39:05.051Z,29.51
2023-03-16T12:41:43.660Z,30.09
2023-03-16T12:44:41.645Z,29.96
2023-03-16T12:47:26.715Z,29.94
2023-03-16T12:50:04.626Z,30.06
2023-03-16T12:52:55.052Z,30.07
2023-03-16T12:55:42.194Z,30.14
2023-03-16T12:58:13.950Z,30.18
2023-03-16T13:00:44.045Z,29.43
2023-03-16T13:03:21.184Z,29.08
2023-03-16T13:05:58.948Z,28.97
2023-03-16T13:08:30.149Z,29.62
2023-03-16T13:11:08.316Z,30.30
2023-03-16T13:13:53.771Z,30.93
2023-03-16T13:16:42.044Z,31.60
2023-03-16T13:19:30.528Z,32.38
2023-03-16T13:22:28.540Z,33.30
2023-03-16T13:25:02.415Z,34.36
2023-03-16T13:27:37.996Z,33.72
2023-03-16T13:30:30.038Z,31.69
2023-03-16T13:33:14.984Z,30.18
2023-03-16T13:35:45.025Z,29.21
2023-03-16T13:38:20.092Z,29.07
2023-03-16T13:40:55.615Z,29.10
2023-03-16T13:43:30.954Z,29.07
2023-03-16T13:46:01.541Z,29.65
2023-03-16T13:48:31.564Z,29.32
2023-03-16T13:51:02.064Z,29.22
2023-03-16T13:53:34.499Z,29.62
2023-03-16T13:56:05.549Z,29.22
2023-03-16T13:58:38.999Z,29.18
2023-03-16T14:01:28.020Z,29.65
2023-03-16T14:04:01.547Z,30.35
2023-03-16T14:06:32.856Z,31.08
2023-03-16T14:09:06.019Z,31.19
2023-03-16T14:11:36.187Z,31.36
2023-03-16T14:14:18.985Z,31.46
2023-03-16T14:16:51.053Z,31.00
2023-03-16T14:19:26.930Z,31.10
2023-03-16T14:21:58.183Z,31.02
2023-03-16T14:24:32.444Z,30.88
2023-03-16T14:27:44.505Z,29.96
2023-03-16T14:30:27.013Z,29.72
2023-03-16T14:33:03.977Z,29.80
2023-03-16T14:35:42.430Z,29.87
2023-03-16T14:38:37.310Z,29.83
2023-03-16T14:41:10.328Z,29.46
2023-03-16T14:44:00.831Z,29.42
2023-03-16T14:46:41.605Z,29.76
2023-03-16T14:49:38.642Z,29.93
2023-03-16T14:52:18.604Z,30.09
2023-03-16T14:54:48.788Z,29.61
2023-03-16T14:57:20.724Z,29.70
2023-03-16T14:59:50.748Z,29.90
2023-03-16T15:02:34.487Z,29.93
2023-03-16T15:05:05.576Z,29.86
2023-03-16T15:07:40.044Z,29.93
2023-03-16T15:10:31.887Z,30.09
2023-03-16T15:13:14.459Z,30.27
2023-03-16T15:15:45.152Z,30.51
2023-03-16T15:18:15.190Z,30.69
2023-03-16T15:20:46.943Z,31.08
2023-03-16T15:23:19.507Z,31.82
2023-03-16T15:25:50.980Z,32.11
2023-03-16T15:28:23.602Z,32.28
2023-03-16T15:30:58.679Z,32.38
2023-03-16T15:33:28.544Z,32.48
2023-03-16T15:36:01.280Z,32.48
2023-03-16T15:38:37.313Z,32.46
2023-03-16T15:41:12.609Z,32.87
2023-03-16T15:43:42.454Z,33.18
2023-03-16T15:46:13.345Z,33.86
2023-03-16T15:48:43.799Z,35.03
2023-03-16T15:51:22.873Z,35.79
2023-03-16T15:53:56.319Z,35.92
2023-03-16T15:56:32.326Z,35.52
2023-03-16T15:59:08.434Z,35.82
2023-03-16T16:01:48.745Z,35.85
2023-03-16T16:04:25.398Z,36.33
2023-03-16T16:06:57.395Z,36.43
2023-03-16T16:09:27.223Z,37.39
2023-03-16T16:11:57.524Z,36.98
2023-03-16T16:14:29.196Z,36.57
2023-03-16T16:16:59.469Z,38.07
2023-03-16T16:19:31.156Z,36.89
2023-03-16T16:22:02.068Z,35.41
2023-03-16T16:24:31.890Z,34.80
2023-03-16T16:27:01.877Z,34.70
2023-03-16T16:29:34.960Z,35.31
2023-03-16T16:32:05.112Z,35.32
2023-03-16T16:34:34.815Z,35.51
2023-03-16T16:37:04.435Z,34.36
2023-03-16T16:39:35.103Z,35.05
2023-03-16T16:42:05.290Z,34.66
2023-03-16T16:44:37.542Z,36.13
2023-03-16T16:47:25.194Z,37.26
2023-03-16T16:49:55.108Z,35.94
2023-03-16T16:52:24.732Z,34.42
2023-03-16T16:54:54.488Z,32.65
2023-03-16T16:57:24.392Z,32.05
2023-03-16T16:59:54.102Z,31.71
2023-03-16T17:02:44.992Z,31.71
2023-03-16T17:05:23.786Z,34.98
2023-03-16T17:07:54.432Z,37.47
2023-03-16T17:10:28.933Z,37.77
2023-03-16T17:12:59.040Z,37.46
2023-03-16T17:15:31.726Z,39.12
2023-03-16T17:18:09.215Z,38.25
2023-03-16T17:20:40.050Z,38.75
2023-03-16T17:23:35.319Z,37.09
2023-03-16T17:26:20.439Z,35.73
2023-03-16T17:28:59.604Z,33.94
2023-03-16T17:31:36.268Z,33.41
2023-03-16T17:34:24.768Z,33.55
2023-03-16T17:36:55.467Z,33.21
2023-03-16T17:39:27.076Z,32.33
2023-03-16T17:42:03.317Z,32.69
2023-03-16T17:44:40.597Z,32.80
2023-03-16T17:47:27.826Z,32.79
2023-03-16T17:49:58.141Z,33.59
2023-03-16T17:52:30.365Z,34.33
2023-03-16T17:55:00.422Z,33.64
2023-03-16T17:57:32.339Z,33.14
2023-03-16T18:00:05.813Z,32.39
2023-03-16T18:02:41.453Z,31.92
2023-03-16T18:06:00.295Z,31.37
2023-03-16T18:08:34.422Z,30.89
2023-03-16T18:11:09.491Z,30.60
2023-03-16T18:13:42.197Z,30.58
2023-03-16T18:16:18.676Z,32.45
2023-03-16T18:18:48.905Z,32.76
2023-03-16T18:21:25.694Z,34.09
2023-03-16T18:23:56.246Z,34.26
2023-03-16T18:26:26.399Z,34.35
2023-03-16T18:28:56.707Z,34.56
2023-03-16T18:31:29.158Z,34.95
2023-03-16T18:34:02.255Z,34.81
2023-03-16T18:36:38.914Z,34.36
2023-03-16T18:39:17.384Z,33.88
2023-03-16T18:41:51.091Z,34.35
2023-03-16T18:44:30.989Z,34.88
2023-03-16T18:47:04.609Z,34.26
2023-03-16T18:49:38.382Z,34.02
2023-03-16T18:52:18.301Z,33.92
2023-03-16T18:54:49.323Z,33.65
2023-03-16T18:57:21.910Z,33.64
2023-03-16T18:59:52.817Z,33.54
2023-03-16T19:02:30.555Z,33.34
2023-03-16T19:05:04.231Z,33.17
2023-03-16T19:07:36.541Z,33.18
2023-03-16T19:10:40.064Z,33.18
2023-03-16T19:13:22.695Z,33.31
2023-03-16T19:15:54.260Z,33.41
2023-03-16T19:18:27.279Z,33.24
2023-03-16T19:20:57.879Z,33.51
2023-03-16T19:23:37.416Z,33.48
2023-03-16T19:26:07.590Z,33.14
2023-03-16T19:28:40.461Z,33.28
2023-03-16T19:31:22.209Z,33.26
2023-03-16T19:33:53.632Z,33.20
2023-03-16T19:36:28.830Z,32.99
2023-03-16T19:38:59.613Z,32.87
2023-03-16T19:41:39.661Z,32.99
2023-03-16T19:44:21.833Z,32.90
2023-03-16T19:46:52.054Z,32.96
2023-03-16T19:49:24.202Z,32.95
2023-03-16T19:51:57.302Z,32.73
2023-03-16T19:54:35.106Z,32.36
2023-03-16T19:57:15.364Z,32.35
2023-03-16T19:59:56.590Z,32.11
2023-03-16T20:02:44.200Z,32.09
2023-03-16T20:05:22.507Z,31.95
2023-03-16T20:07:53.721Z,31.76
2023-03-16T20:10:26.618Z,31.60
2023-03-16T20:12:59.476Z,31.40
2023-03-16T20:15:33.528Z,31.64
2023-03-16T20:18:04.151Z,31.53
2023-03-16T20:20:39.661Z,31.39
2023-03-16T20:23:28.497Z,31.23
2023-03-16T20:26:02.849Z,31.03
2023-03-16T20:28:37.343Z,30.98
2023-03-16T20:31:09.181Z,30.88
2023-03-16T20:33:39.228Z,30.65
2023-03-16T20:36:14.859Z,30.51
2023-03-16T20:38:45.363Z,30.52
2023-03-16T20:41:22.422Z,30.62
2023-03-16T20:43:52.903Z,30.37
2023-03-16T20:46:27.396Z,30.21
2023-03-16T20:48:58.452Z,30.12
2023-03-16T20:51:29.989Z,30.20
2023-03-16T20:54:01.308Z,30.13
2023-03-16T20:56:32.632Z,30.12
2023-03-16T20:59:02.589Z,29.97
2023-03-16T21:01:33.364Z,29.76
2023-03-16T21:04:04.571Z,29.62
2023-03-16T21:06:34.935Z,29.48
2023-03-16T21:09:05.194Z,29.34
2023-03-16T21:11:40.174Z,29.10
2023-03-16T21:14:19.637Z,28.83
2023-03-16T21:16:49.841Z,28.73
2023-03-16T21:19:23.801Z,28.67
2023-03-16T21:21:54.192Z,28.50
2023-03-16T21:24:24.271Z,28.42
2023-03-16T21:26:55.087Z,28.29
2023-03-16T21:29:25.340Z,28.15
2023-03-16T21:31:55.141Z,27.82
2023-03-16T21:34:35.298Z,27.68
2023-03-16T21:37:13.602Z,27.47
2023-03-16T21:39:43.476Z,27.31
2023-03-16T21:42:13.616Z,27.17
2023-03-16T21:44:43.694Z,27.16
2023-03-16T21:47:28.739Z,27.06
2023-03-16T21:50:00.351Z,26.89
2023-03-16T21:52:31.498Z,26.73
2023-03-16T21:55:01.896Z,26.68
2023-03-16T21:57:32.129Z,26.62
2023-03-16T22:00:02.332Z,26.55
2023-03-16T22:02:38.212Z,26.44
2023-03-16T22:05:20.615Z,26.44
2023-03-16T22:07:51.124Z,26.25
2023-03-16T22:10:21.761Z,26.34
2023-03-16T22:12:52.623Z,26.31
2023-03-16T22:15:26.158Z,26.11
2023-03-16T22:17:58.267Z,25.96
2023-03-16T22:20:29.298Z,25.86
2023-03-16T22:23:00.572Z,25.65
2023-03-16T22:25:30.886Z,25.54
2023-03-16T22:28:00.964Z,25.51
2023-03-16T22:30:30.830Z,25.53
2023-03-16T22:33:02.342Z,25.47
2023-03-16T22:35:38.649Z,25.39
2023-03-16T22:38:12.639Z,25.32
2023-03-16T22:40:43.830Z,25.38
2023-03-16T22:43:17.374Z,25.40
2023-03-16T22:45:47.254Z,25.40
2023-03-16T22:48:23.534Z,25.49
2023-03-16T22:50:54.408Z,25.46
2023-03-16T22:53:47.065Z,25.45
2023-03-16T22:56:17.332Z,25.38
2023-03-16T22:58:55.480Z,25.43
2023-03-16T23:01:37.126Z,25.43
2023-03-16T23:04:31.244Z,25.46
2023-03-16T23:07:01.109Z,25.36
2023-03-16T23:09:30.892Z,25.33
2023-03-16T23:12:02.689Z,25.33
2023-03-16T23:14:36.339Z,25.38
2023-03-16T23:17:07.880Z,25.36
2023-03-16T23:19:38.637Z,25.38
2023-03-16T23:22:08.826Z,25.40
2023-03-16T23:24:40.101Z,25.42
2023-03-16T23:27:22.540Z,25.43
2023-03-16T23:29:52.612Z,25.40
2023-03-16T23:32:22.987Z,25.39
2023-03-16T23:34:52.825Z,25.36
2023-03-16T23:37:22.818Z,25.38
2023-03-16T23:39:52.611Z,25.38
2023-03-16T23:42:22.266Z,25.33
2023-03-16T23:44:53.208Z,25.38
2023-03-16T23:47:23.495Z,25.35
2023-03-16T23:49:53.605Z,25.33
2023-03-16T23:52:23.472Z,25.30
2023-03-16T23:54:53.327Z,25.35
2023-03-16T23:57:22.955Z,25.29
2023-03-16T23:59:52.577Z,25.26
